Time;durP1;ratioP1;P1;durP2;ratioP2;P2;SDS_P1;SDS_P2;PMS_P1;PMS_P2;Temp;Humidity;BMP_temperature;BMP_pressure;BME280_temperature;BME280_humidity;BME280_pressure;Samples;Min_cycle;Max_cycle;Signal;HPM_P1;HPM_P2
2021/08/14 00:01:00;;;;;;;0.95;0.93;;;21.90;99.90;;;;;;5081319;28;20191;-73
2021/08/14 00:03:25;;;;;;;3.55;2.55;;;21.80;99.90;;;;;;5077935;28;20168;-73
2021/08/14 00:05:51;;;;;;;1.95;0.93;;;21.60;99.90;;;;;;5078284;28;20705;-73
2021/08/14 00:08:17;;;;;;;1.70;1.38;;;21.70;99.90;;;;;;5070479;28;20222;-74
2021/08/14 00:10:43;;;;;;;0.85;0.85;;;21.70;99.90;;;;;;5083220;28;20167;-75
2021/08/14 00:13:09;;;;;;;1.27;1.17;;;21.80;99.90;;;;;;5071010;28;20203;-75
2021/08/14 00:15:35;;;;;;;1.70;1.45;;;21.70;99.90;;;;;;5061277;28;20210;-75
2021/08/14 00:18:01;;;;;;;1.75;1.38;;;21.50;99.90;;;;;;5064706;28;20199;-74
2021/08/14 00:20:27;;;;;;;2.25;1.83;;;21.20;99.90;;;;;;5063460;28;20196;-73
2021/08/14 00:22:53;;;;;;;1.20;1.20;;;21.30;99.90;;;;;;5066625;28;20169;-73
2021/08/14 00:25:19;;;;;;;3.22;1.13;;;21.50;99.90;;;;;;5066036;28;20164;-75
2021/08/14 00:27:45;;;;;;;0.93;0.68;;;21.60;99.90;;;;;;5076933;28;20167;-75
2021/08/14 00:30:11;;;;;;;3.47;0.77;;;21.20;99.90;;;;;;5067690;28;20164;-74
2021/08/14 00:32:37;;;;;;;2.40;1.02;;;21.10;99.90;;;;;;5073676;28;20195;-74
2021/08/14 00:35:03;;;;;;;1.45;0.65;;;21.20;99.90;;;;;;5071867;28;20258;-74
2021/08/14 00:37:29;;;;;;;0.57;0.57;;;21.40;99.90;;;;;;5070042;28;20180;-74
2021/08/14 00:39:55;;;;;;;0.80;0.80;;;21.50;99.90;;;;;;5068695;28;20172;-74
2021/08/14 00:42:21;;;;;;;1.08;1.00;;;21.40;99.90;;;;;;5066944;28;20243;-74
2021/08/14 00:44:47;;;;;;;0.65;0.65;;;21.30;99.90;;;;;;5054434;28;20172;-74
2021/08/14 00:47:13;;;;;;;1.17;1.15;;;21.10;99.90;;;;;;5079500;28;20245;-74
2021/08/14 00:49:40;;;;;;;1.52;1.30;;;21.10;99.90;;;;;;5076603;28;20211;-74
2021/08/14 00:52:06;;;;;;;0.88;0.88;;;21.00;99.90;;;;;;5070043;28;21456;-74
2021/08/14 00:54:32;;;;;;;0.13;0.13;;;20.90;99.90;;;;;;5073692;28;20175;-75
2021/08/14 00:56:58;;;;;;;2.53;0.75;;;21.00;99.90;;;;;;5067494;28;20168;-74
2021/08/14 00:59:30;;;;;;;1.38;1.27;;;20.90;99.90;;;;;;5072199;28;20569;-75
2021/08/14 01:01:56;;;;;;;0.88;0.85;;;21.10;99.90;;;;;;5066225;28;20207;-76
2021/08/14 01:04:22;;;;;;;2.05;1.90;;;21.20;99.90;;;;;;5082469;28;20247;-75
2021/08/14 01:06:50;;;;;;;2.08;1.23;;;21.30;99.90;;;;;;5065341;28;20192;-75
2021/08/14 01:09:15;;;;;;;0.90;0.75;;;21.30;99.90;;;;;;5066449;28;20200;-75
2021/08/14 01:11:42;;;;;;;1.35;1.23;;;21.40;99.90;;;;;;5066388;28;20685;-75
2021/08/14 01:14:08;;;;;;;1.08;0.98;;;21.40;99.90;;;;;;5065769;28;20256;-75
2021/08/14 01:16:34;;;;;;;11.50;1.65;;;21.40;99.90;;;;;;5082145;28;20180;-75
2021/08/14 01:19:00;;;;;;;0.55;0.55;;;21.30;99.90;;;;;;5071322;28;20262;-74
2021/08/14 01:21:26;;;;;;;0.95;0.95;;;21.40;99.90;;;;;;5078940;28;20203;-75
2021/08/14 01:23:56;;;;;;;0.15;0.15;;;21.20;99.90;;;;;;5066508;28;20601;-75
2021/08/14 01:26:23;;;;;;;0.20;0.20;;;21.10;99.90;;;;;;5083370;28;20202;-75
2021/08/14 01:28:50;;;;;;;0.68;0.68;;;21.20;99.90;;;;;;5071108;28;20283;-75
2021/08/14 01:31:17;;;;;;;0.47;0.47;;;21.30;99.90;;;;;;5078966;28;20283;-75
2021/08/14 01:33:44;;;;;;;1.23;1.13;;;21.40;99.90;;;;;;5078549;28;20179;-75
2021/08/14 01:36:13;;;;;;;0.60;0.60;;;21.40;99.90;;;;;;5070574;28;20180;-76
2021/08/14 01:38:59;;;;;;;0.65;0.65;;;21.30;99.90;;;;;;5082382;28;20182;-76
2021/08/14 01:41:25;;;;;;;0.55;0.55;;;21.30;99.90;;;;;;5073739;28;20195;-76
2021/08/14 01:43:59;;;;;;;0.65;0.65;;;21.00;99.90;;;;;;5073443;28;20248;-76
2021/08/14 01:46:26;;;;;;;2.30;1.85;;;20.90;99.90;;;;;;5081955;28;20168;-76
2021/08/14 01:48:52;;;;;;;0.68;0.68;;;20.80;99.90;;;;;;5071000;28;20230;-76
2021/08/14 01:51:19;;;;;;;0.75;0.75;;;21.00;99.90;;;;;;5078241;28;20200;-75
2021/08/14 01:53:53;;;;;;;0.80;0.63;;;21.10;99.90;;;;;;5066083;28;20540;-75
2021/08/14 01:56:21;;;;;;;0.75;0.75;;;21.10;99.90;;;;;;5084358;28;20511;-75
2021/08/14 01:58:47;;;;;;;0.57;0.40;;;21.20;99.90;;;;;;5057690;28;20164;-76
2021/08/14 02:01:13;;;;;;;0.25;0.25;;;21.20;99.90;;;;;;5082099;28;20171;-76
2021/08/14 02:03:40;;;;;;;0.52;0.52;;;21.20;99.90;;;;;;5080486;28;20191;-76
2021/08/14 02:06:06;;;;;;;0.80;0.80;;;21.20;99.90;;;;;;5074467;28;20171;-75
2021/08/14 02:08:34;;;;;;;0.50;0.50;;;21.20;99.90;;;;;;5086884;28;20286;-75
2021/08/14 02:11:00;;;;;;;0.77;0.77;;;21.30;99.90;;;;;;5070865;28;20227;-75
2021/08/14 02:13:28;;;;;;;0.43;0.43;;;21.00;99.90;;;;;;5077044;28;20168;-74
2021/08/14 02:15:54;;;;;;;1.27;1.23;;;20.70;99.90;;;;;;5072620;28;20195;-75
2021/08/14 02:18:20;;;;;;;0.82;0.82;;;20.60;99.90;;;;;;5083570;28;20176;-75
2021/08/14 02:20:46;;;;;;;0.95;0.77;;;20.70;99.90;;;;;;5073333;28;20160;-75
2021/08/14 02:23:11;;;;;;;1.60;1.08;;;20.80;99.90;;;;;;5081362;28;20192;-75
2021/08/14 02:25:37;;;;;;;1.63;1.40;;;20.80;99.90;;;;;;5078441;28;20207;-75
2021/08/14 02:28:04;;;;;;;1.10;0.90;;;20.80;99.90;;;;;;5075341;28;20204;-75
2021/08/14 02:30:29;;;;;;;0.65;0.65;;;20.80;99.90;;;;;;5086277;28;20255;-75
2021/08/14 02:32:55;;;;;;;1.80;1.70;;;20.90;99.90;;;;;;5073487;28;20164;-77
2021/08/14 02:35:21;;;;;;;0.90;0.88;;;21.10;99.90;;;;;;5078160;28;20200;-78
2021/08/14 02:37:47;;;;;;;2.05;1.60;;;20.90;99.90;;;;;;5069494;28;20286;-74
2021/08/14 02:40:13;;;;;;;11.07;0.95;;;20.60;99.90;;;;;;5075942;28;20172;-76
2021/08/14 02:42:43;;;;;;;2.22;2.03;;;20.60;99.90;;;;;;5070691;28;20192;-75
2021/08/14 02:45:09;;;;;;;1.10;0.63;;;20.40;99.90;;;;;;5082123;28;20283;-74
2021/08/14 02:47:36;;;;;;;0.32;0.32;;;20.30;99.90;;;;;;5077850;28;20222;-76
2021/08/14 02:50:03;;;;;;;1.00;0.93;;;20.20;99.90;;;;;;5074292;28;20276;-75
2021/08/14 02:52:29;;;;;;;0.50;0.50;;;20.20;99.90;;;;;;5085686;28;20224;-75
2021/08/14 02:54:55;;;;;;;0.95;0.95;;;20.10;99.90;;;;;;5072819;28;20171;-76
2021/08/14 02:57:21;;;;;;;1.13;1.00;;;20.10;99.90;;;;;;5078612;28;20169;-75
2021/08/14 02:59:47;;;;;;;0.75;0.75;;;20.20;99.90;;;;;;5069383;28;20173;-77
2021/08/14 03:02:13;;;;;;;0.60;0.60;;;20.30;99.90;;;;;;5084867;28;20168;-77
2021/08/14 03:04:38;;;;;;;1.75;1.60;;;20.50;99.90;;;;;;5070883;28;20264;-76
2021/08/14 03:07:04;;;;;;;1.23;1.13;;;20.60;99.90;;;;;;5081984;28;20226;-75
2021/08/14 03:09:30;;;;;;;0.63;0.63;;;20.70;99.90;;;;;;5077171;28;20195;-76
2021/08/14 03:11:56;;;;;;;1.08;0.85;;;20.80;99.90;;;;;;5074812;28;20165;-76
2021/08/14 03:14:22;;;;;;;0.50;0.50;;;20.80;99.90;;;;;;5084834;28;20196;-75
2021/08/14 03:16:48;;;;;;;1.05;1.05;;;20.70;99.90;;;;;;5071821;28;20164;-75
2021/08/14 03:19:14;;;;;;;0.65;0.65;;;20.60;99.90;;;;;;5087494;28;20232;-75
2021/08/14 03:21:40;;;;;;;10.10;1.92;;;20.50;99.90;;;;;;5078052;28;20169;-75
2021/08/14 03:24:06;;;;;;;1.02;1.02;;;20.40;99.90;;;;;;5081698;28;20195;-75
2021/08/14 03:26:32;;;;;;;1.08;1.08;;;20.50;99.90;;;;;;5070299;28;20176;-75
2021/08/14 03:28:58;;;;;;;1.45;1.35;;;20.30;99.90;;;;;;5082692;28;20191;-75
2021/08/14 03:31:24;;;;;;;0.90;0.85;;;20.30;99.90;;;;;;5077056;28;20168;-74
2021/08/14 03:33:50;;;;;;;0.93;0.77;;;20.30;99.90;;;;;;5076247;28;20199;-77
2021/08/14 03:36:17;;;;;;;4.68;2.25;;;20.30;99.90;;;;;;5083962;28;20186;-76
2021/08/14 03:38:43;;;;;;;0.95;0.90;;;19.90;99.90;;;;;;5068100;28;20184;-76
2021/08/14 03:41:09;;;;;;;0.65;0.65;;;20.00;99.90;;;;;;5074958;28;20172;-75
2021/08/14 03:43:36;;;;;;;0.98;0.98;;;20.10;99.90;;;;;;5078277;28;20169;-76
2021/08/14 03:46:02;;;;;;;1.25;1.17;;;20.10;99.90;;;;;;5081950;28;20200;-76
2021/08/14 03:48:28;;;;;;;0.50;0.50;;;20.30;99.90;;;;;;5071155;28;20247;-75
2021/08/14 03:50:54;;;;;;;1.02;0.75;;;20.50;99.90;;;;;;5081622;28;20175;-75
2021/08/14 03:53:20;;;;;;;0.70;0.70;;;20.70;99.90;;;;;;5074867;28;20172;-75
2021/08/14 03:55:46;;;;;;;0.55;0.55;;;20.50;99.90;;;;;;5075304;28;20165;-75
2021/08/14 03:58:12;;;;;;;0.60;0.60;;;20.50;99.90;;;;;;5083219;28;20176;-77
2021/08/14 04:00:38;;;;;;;0.52;0.52;;;20.60;99.90;;;;;;5069320;28;20239;-77
2021/08/14 04:03:03;;;;;;;0.55;0.55;;;20.50;99.90;;;;;;5080979;28;20199;-76
2021/08/14 04:05:29;;;;;;;0.63;0.63;;;20.30;99.90;;;;;;5076093;28;20520;-77
2021/08/14 04:07:55;;;;;;;1.42;1.08;;;20.40;99.90;;;;;;5074675;28;20250;-76
2021/08/14 04:10:21;;;;;;;0.60;0.60;;;20.30;99.90;;;;;;5083643;28;20191;-77
2021/08/14 04:12:47;;;;;;;1.02;1.02;;;20.20;99.90;;;;;;5071096;28;20239;-74
2021/08/14 04:15:13;;;;;;;0.80;0.80;;;20.40;99.90;;;;;;5080835;28;20204;-76
2021/08/14 04:17:39;;;;;;;1.95;0.95;;;20.60;99.90;;;;;;5075246;28;20172;-76
2021/08/14 04:20:06;;;;;;;3.42;1.17;;;20.70;99.90;;;;;;5080591;28;20172;-76
2021/08/14 04:22:32;;;;;;;3.25;1.23;;;20.50;99.90;;;;;;5068896;28;20176;-76
2021/08/14 04:24:58;;;;;;;3.30;2.30;;;20.70;99.90;;;;;;5082467;28;20196;-77
2021/08/14 04:27:24;;;;;;;1.67;1.58;;;20.50;99.90;;;;;;5075559;28;20175;-78
2021/08/14 04:29:50;;;;;;;1.98;1.77;;;20.40;99.90;;;;;;5073717;28;20196;-78
2021/08/14 04:32:15;;;;;;;0.82;0.82;;;20.30;99.90;;;;;;5081388;28;20198;-77
2021/08/14 04:34:41;;;;;;;1.33;1.23;;;20.40;99.90;;;;;;5070748;28;20213;-77
2021/08/14 04:37:07;;;;;;;2.35;1.25;;;20.40;99.90;;;;;;5080662;28;20203;-77
2021/08/14 04:39:33;;;;;;;1.02;0.75;;;20.60;99.90;;;;;;5075789;28;20167;-77
2021/08/14 04:41:59;;;;;;;2.10;0.73;;;20.70;99.90;;;;;;5074077;28;20173;-77
2021/08/14 04:44:25;;;;;;;0.63;0.63;;;20.70;99.90;;;;;;5083896;28;20253;-77
2021/08/14 04:46:51;;;;;;;2.17;1.65;;;20.90;99.90;;;;;;5068720;28;20203;-78
2021/08/14 04:49:17;;;;;;;0.50;0.50;;;21.10;99.90;;;;;;5078088;28;20224;-78
2021/08/14 04:51:43;;;;;;;0.82;0.55;;;21.30;99.90;;;;;;5077242;28;20231;-77
2021/08/14 04:54:09;;;;;;;1.23;1.15;;;21.30;99.90;;;;;;5070274;28;20211;-77
2021/08/14 04:56:34;;;;;;;4.72;2.00;;;21.50;99.90;;;;;;5072619;28;20215;-77
2021/08/14 04:59:00;;;;;;;1.17;1.17;;;21.70;99.90;;;;;;5080542;28;20172;-78
2021/08/14 05:01:27;;;;;;;1.42;1.33;;;22.00;99.90;;;;;;5076063;28;20167;-78
2021/08/14 05:03:52;;;;;;;0.63;0.63;;;22.00;99.90;;;;;;5072445;28;20199;-77
2021/08/14 05:06:18;;;;;;;1.05;0.95;;;21.90;99.90;;;;;;5071416;28;20196;-77
2021/08/14 05:08:44;;;;;;;0.80;0.80;;;21.90;99.90;;;;;;5082199;28;20195;-77
2021/08/14 05:11:10;;;;;;;11.70;2.05;;;22.10;99.90;;;;;;5067080;28;20226;-77
2021/08/14 05:13:36;;;;;;;1.65;0.77;;;22.30;99.90;;;;;;5065490;28;20168;-77
2021/08/14 05:16:02;;;;;;;1.13;1.02;;;22.40;99.90;;;;;;5078552;28;20176;-78
2021/08/14 05:18:28;;;;;;;0.40;0.40;;;22.40;99.90;;;;;;5068913;28;20267;-79
2021/08/14 05:20:54;;;;;;;0.80;0.80;;;22.80;99.90;;;;;;5082551;28;20192;-79
2021/08/14 05:23:20;;;;;;;4.00;1.88;;;23.20;99.90;;;;;;5074972;28;20219;-78
2021/08/14 05:25:45;;;;;;;0.93;0.93;;;23.40;99.90;;;;;;5076148;28;20218;-78
2021/08/14 05:28:11;;;;;;;0.45;0.45;;;23.40;99.90;;;;;;5084437;28;20191;-78
2021/08/14 05:30:37;;;;;;;1.40;1.33;;;23.70;99.90;;;;;;5073239;28;20202;-78
2021/08/14 05:33:03;;;;;;;2.13;1.25;;;23.80;99.90;;;;;;5081422;28;20202;-79
2021/08/14 05:35:29;;;;;;;0.75;0.75;;;23.90;99.90;;;;;;5077313;28;20172;-78
2021/08/14 05:37:55;;;;;;;0.80;0.80;;;24.30;99.90;;;;;;5086695;28;20167;-78
2021/08/14 05:40:21;;;;;;;1.67;1.42;;;24.50;99.90;;;;;;5072816;28;20159;-78
2021/08/14 05:42:47;;;;;;;0.65;0.65;;;24.70;99.90;;;;;;5083445;28;20230;-79
2021/08/14 05:45:13;;;;;;;0.70;0.65;;;24.70;99.90;;;;;;5079738;28;20184;-78
2021/08/14 05:47:39;;;;;;;0.77;0.77;;;25.00;99.90;;;;;;5073730;28;20216;-78
2021/08/14 05:50:05;;;;;;;2.00;1.90;;;25.20;99.90;;;;;;5085469;28;20523;-78
2021/08/14 05:52:31;;;;;;;2.50;1.75;;;25.50;99.90;;;;;;5075258;28;20187;-78
2021/08/14 05:54:59;;;;;;;1.95;1.50;;;25.60;99.90;;;;;;5081835;28;20275;-78
2021/08/14 05:57:25;;;;;;;2.25;1.00;;;26.00;99.90;;;;;;5081711;28;20227;-78
2021/08/14 05:59:51;;;;;;;1.67;1.58;;;26.00;99.90;;;;;;5089775;28;20182;-79
2021/08/14 06:02:17;;;;;;;13.02;1.50;;;26.30;99.90;;;;;;5088217;28;20210;-78
2021/08/14 06:04:43;;;;;;;0.57;0.55;;;26.40;99.90;;;;;;5068914;28;20206;-78
2021/08/14 06:07:09;;;;;;;1.92;1.75;;;26.50;99.90;;;;;;5084816;28;20168;-79
2021/08/14 06:09:35;;;;;;;1.42;1.02;;;26.60;99.90;;;;;;5072796;28;20198;-79
2021/08/14 06:12:01;;;;;;;2.20;1.42;;;26.40;99.90;;;;;;5077974;28;20199;-79
2021/08/14 06:14:27;;;;;;;1.35;1.25;;;26.90;99.90;;;;;;5079372;28;20223;-79
2021/08/14 06:16:52;;;;;;;0.50;0.45;;;27.10;99.90;;;;;;5082694;28;20548;-79
2021/08/14 06:19:19;;;;;;;0.95;0.95;;;27.40;99.90;;;;;;5072804;28;20207;-81
2021/08/14 06:21:45;;;;;;;1.55;1.45;;;27.30;99.90;;;;;;5084921;28;20188;-79
2021/08/14 06:24:11;;;;;;;0.55;0.55;;;27.20;99.90;;;;;;5078343;28;20178;-78
2021/08/14 06:26:37;;;;;;;0.88;0.88;;;26.60;99.90;;;;;;5077445;28;20223;-78
2021/08/14 06:29:03;;;;;;;1.30;1.20;;;26.30;99.90;;;;;;5084004;28;20799;-78
2021/08/14 06:31:29;;;;;;;0.47;0.47;;;26.30;99.90;;;;;;5073688;28;20196;-79
2021/08/14 06:33:55;;;;;;;1.10;1.10;;;26.10;99.90;;;;;;5082593;28;20171;-79
2021/08/14 06:36:21;;;;;;;0.43;0.43;;;25.60;99.90;;;;;;5079111;28;20159;-80
2021/08/14 06:38:47;;;;;;;0.85;0.85;;;25.50;99.90;;;;;;5084287;28;20203;-77
2021/08/14 06:41:13;;;;;;;1.40;1.30;;;26.10;99.90;;;;;;5066435;28;20218;-79
2021/08/14 06:43:39;;;;;;;0.63;0.63;;;26.60;99.90;;;;;;5074007;28;20232;-78
2021/08/14 06:46:05;;;;;;;1.30;0.95;;;26.40;99.90;;;;;;5075136;28;20163;-79
2021/08/14 06:48:35;;;;;;;0.63;0.52;;;26.80;99.90;;;;;;5078528;28;20715;-78
2021/08/14 06:51:02;;;;;;;0.52;0.52;;;27.50;99.90;;;;;;5079879;28;20249;-79
2021/08/14 06:53:27;;;;;;;0.45;0.45;;;28.50;99.90;;;;;;5071825;28;20267;-80
2021/08/14 06:55:53;;;;;;;0.57;0.57;;;29.10;99.90;;;;;;5077469;28;20327;-77
2021/08/14 06:58:19;;;;;;;0.65;0.65;;;28.80;99.90;;;;;;5070206;28;20200;-79
2021/08/14 07:00:45;;;;;;;1.30;1.25;;;28.70;99.90;;;;;;5081456;28;20254;-80
2021/08/14 07:03:11;;;;;;;1.77;1.13;;;29.40;99.90;;;;;;5071441;28;20172;-80
2021/08/14 07:05:40;;;;;;;1.38;1.15;;;29.70;99.90;;;;;;5085154;28;20195;-79
2021/08/14 07:08:07;;;;;;;0.82;0.57;;;30.00;99.90;;;;;;5074990;28;20171;-79
2021/08/14 07:10:33;;;;;;;1.08;0.75;;;30.10;99.90;;;;;;5077573;28;20202;-80
2021/08/14 07:12:59;;;;;;;1.45;1.15;;;30.00;99.90;;;;;;5083233;28;20167;-79
2021/08/14 07:15:24;;;;;;;3.03;1.77;;;29.40;99.90;;;;;;5072279;28;20164;-79
2021/08/14 07:17:50;;;;;;;1.27;1.17;;;29.20;99.90;;;;;;5079340;28;20191;-79
2021/08/14 07:20:16;;;;;;;0.82;0.73;;;28.70;99.90;;;;;;5087971;28;20191;-79
2021/08/14 07:22:42;;;;;;;1.52;1.42;;;29.00;99.90;;;;;;5072114;28;20183;-79
2021/08/14 07:25:09;;;;;;;1.08;1.08;;;29.40;99.90;;;;;;5062355;28;20192;-79
2021/08/14 07:27:35;;;;;;;2.10;1.90;;;29.50;99.90;;;;;;5083236;28;20184;-79
2021/08/14 07:30:02;;;;;;;2.40;0.75;;;30.00;99.90;;;;;;5081667;28;20202;-79
2021/08/14 07:32:28;;;;;;;1.08;0.82;;;30.40;99.90;;;;;;5077474;28;20235;-79
2021/08/14 07:34:53;;;;;;;0.52;0.52;;;28.90;99.90;;;;;;5073529;28;20195;-79
2021/08/14 07:37:19;;;;;;;1.20;1.05;;;29.00;99.90;;;;;;5084530;28;20210;-79
2021/08/14 07:39:45;;;;;;;1.38;1.38;;;29.60;99.90;;;;;;5070346;28;20171;-79
2021/08/14 07:42:11;;;;;;;1.10;0.98;;;29.60;99.90;;;;;;5074379;28;20183;-78
2021/08/14 07:44:37;;;;;;;0.60;0.60;;;29.00;99.90;;;;;;5073879;28;20211;-78
2021/08/14 07:47:03;;;;;;;1.45;1.23;;;29.40;99.90;;;;;;5083399;28;20164;-78
2021/08/14 07:49:29;;;;;;;1.83;1.15;;;29.50;99.90;;;;;;5066215;28;20234;-78
2021/08/14 07:51:55;;;;;;;0.55;0.55;;;29.30;99.90;;;;;;5073060;28;20174;-78
2021/08/14 07:54:21;;;;;;;1.38;1.38;;;28.50;99.90;;;;;;5076054;28;20389;-78
2021/08/14 07:56:47;;;;;;;0.75;0.75;;;28.60;99.90;;;;;;5078222;28;20774;-79
2021/08/14 07:59:13;;;;;;;7.68;1.17;;;28.90;99.90;;;;;;5084484;28;20177;-78
2021/08/14 08:01:42;;;;;;;1.63;1.52;;;29.20;99.90;;;;;;5070592;28;20242;-81
2021/08/14 08:04:07;;;;;;;6.88;2.25;;;29.50;99.90;;;;;;5080125;28;20180;-76
2021/08/14 08:06:33;;;;;;;4.47;1.05;;;29.20;99.90;;;;;;5078041;28;20203;-77
2021/08/14 08:08:59;;;;;;;0.88;0.82;;;28.60;99.90;;;;;;5071417;28;20237;-77
2021/08/14 08:11:25;;;;;;;1.00;0.85;;;29.30;99.90;;;;;;5083206;28;20735;-76
2021/08/14 08:13:51;;;;;;;1.42;0.70;;;29.60;99.90;;;;;;5071934;28;20186;-76
2021/08/14 08:16:17;;;;;;;1.48;1.20;;;30.10;99.90;;;;;;5077372;28;20199;-76
2021/08/14 08:18:43;;;;;;;1.27;1.17;;;29.80;99.90;;;;;;5079255;28;20183;-76
2021/08/14 08:21:08;;;;;;;2.70;1.58;;;29.40;99.90;;;;;;5070191;28;20183;-76
2021/08/14 08:23:34;;;;;;;2.95;2.08;;;29.10;99.90;;;;;;5075846;28;20495;-75
2021/08/14 08:26:00;;;;;;;1.08;0.75;;;28.80;99.90;;;;;;5078633;28;20196;-77
2021/08/14 08:28:26;;;;;;;1.13;1.02;;;28.80;99.90;;;;;;5077421;28;20244;-77
2021/08/14 08:30:52;;;;;;;1.60;1.42;;;28.70;99.90;;;;;;5071949;28;20176;-76
2021/08/14 08:33:18;;;;;;;1.02;0.98;;;28.80;99.90;;;;;;5082693;28;20680;-76
2021/08/14 08:35:44;;;;;;;0.70;0.70;;;29.60;99.90;;;;;;5072019;28;20184;-76
2021/08/14 08:38:10;;;;;;;0.43;0.43;;;30.20;99.90;;;;;;5077254;28;20223;-77
2021/08/14 08:40:42;;;;;;;1.10;0.68;;;30.60;99.90;;;;;;5079436;28;20164;-77
2021/08/14 08:43:08;;;;;;;1.95;1.45;;;30.90;99.90;;;;;;5071470;28;20168;-78
2021/08/14 08:45:34;;;;;;;2.25;0.85;;;30.30;99.90;;;;;;5082832;28;20168;-77
2021/08/14 08:48:04;;;;;;;0.90;0.90;;;30.60;99.90;;;;;;5067186;28;20572;-78
2021/08/14 08:50:31;;;;;;;2.10;1.95;;;29.70;99.90;;;;;;5067971;28;20560;-75
2021/08/14 08:52:57;;;;;;;1.27;1.17;;;29.70;99.90;;;;;;5084264;28;20187;-75
2021/08/14 08:55:23;;;;;;;0.82;0.82;;;29.20;99.90;;;;;;5073425;28;20221;-77
2021/08/14 08:57:50;;;;;;;1.45;1.05;;;30.30;99.90;;;;;;5077596;28;20187;-77
2021/08/14 09:00:17;;;;;;;0.90;0.90;;;30.90;99.90;;;;;;5080224;28;20167;-77
2021/08/14 09:03:04;;;;;;;0.93;0.90;;;31.10;99.90;;;;;;5071182;28;20168;-77
2021/08/14 09:05:30;;;;;;;0.25;0.25;;;31.30;99.90;;;;;;5080333;28;20190;-77
2021/08/14 09:08:10;;;;;;;0.60;0.52;;;30.30;99.90;;;;;;5079527;28;20187;-76
2021/08/14 09:10:36;;;;;;;1.33;0.80;;;29.50;99.90;;;;;;5070938;28;20179;-77
2021/08/14 09:13:11;;;;;;;1.05;0.98;;;29.40;99.90;;;;;;5083415;28;20515;-76
2021/08/14 09:15:37;;;;;;;0.32;0.32;;;28.90;99.90;;;;;;5068166;28;20187;-75
2021/08/14 09:18:06;;;;;;;0.65;0.60;;;28.80;99.90;;;;;;5064067;28;20164;-76
2021/08/14 09:20:48;;;;;;;0.52;0.52;;;28.60;99.90;;;;;;5068067;28;20174;-76
2021/08/14 09:23:15;;;;;;;0.50;0.50;;;28.80;99.90;;;;;;5072584;28;20195;-76
2021/08/14 09:25:45;;;;;;;1.25;0.90;;;29.40;99.90;;;;;;5066590;28;20267;-76
2021/08/14 09:28:13;;;;;;;0.70;0.60;;;31.00;99.90;;;;;;5071876;28;20218;-76
2021/08/14 09:31:00;;;;;;;0.52;0.52;;;32.00;99.90;;;;;;5072652;28;20160;-78
2021/08/14 09:33:32;;;;;;;10.13;0.95;;;32.20;99.90;;;;;;5063799;28;20188;-76
2021/08/14 09:35:57;;;;;;;2.10;0.85;;;31.80;99.90;;;;;;5067086;28;20203;-75
2021/08/14 09:38:37;;;;;;;0.38;0.38;;;32.10;99.90;;;;;;5065142;28;20164;-76
2021/08/14 09:41:15;;;;;;;1.17;0.68;;;32.10;99.90;;;;;;5063737;28;20621;-75
2021/08/14 09:43:41;;;;;;;0.55;0.55;;;31.30;99.90;;;;;;5068154;28;20206;-75
2021/08/14 09:46:08;;;;;;;1.65;1.52;;;30.70;99.90;;;;;;5065970;28;20335;-75
2021/08/14 09:48:34;;;;;;;0.57;0.57;;;31.10;99.90;;;;;;5066846;28;20215;-75
2021/08/14 09:51:00;;;;;;;0.85;0.85;;;31.20;99.90;;;;;;5075930;28;20172;-75
2021/08/14 09:53:29;;;;;;;1.50;1.38;;;31.10;99.90;;;;;;5072831;28;20176;-75
2021/08/14 09:56:06;;;;;;;10.15;1.13;;;30.80;99.90;;;;;;5083309;28;20255;-75
2021/08/14 09:58:33;;;;;;;0.63;0.63;;;30.30;99.90;;;;;;5071785;28;20229;-75
2021/08/14 10:01:03;;;;;;;0.50;0.50;;;30.50;99.90;;;;;;5077338;28;20187;-77
2021/08/14 10:03:30;;;;;;;2.95;1.48;;;30.90;99.90;;;;;;5071330;28;20211;-76
2021/08/14 10:05:58;;;;;;;2.97;0.60;;;31.20;99.90;;;;;;5065853;28;20199;-78
2021/08/14 10:08:29;;;;;;;0.85;0.85;;;30.90;99.90;;;;;;5085828;28;20222;-76
2021/08/14 10:10:56;;;;;;;0.57;0.57;;;31.30;99.90;;;;;;5073797;28;20192;-76
2021/08/14 10:13:23;;;;;;;0.77;0.57;;;31.80;99.90;;;;;;5067763;28;20161;-77
2021/08/14 10:15:50;;;;;;;0.60;0.60;;;32.40;99.90;;;;;;5070806;28;20167;-76
2021/08/14 10:18:17;;;;;;;1.48;1.08;;;32.50;99.90;;;;;;5070755;28;20253;-77
2021/08/14 10:20:45;;;;;;;0.40;0.40;;;31.80;99.90;;;;;;5070662;28;20165;-76
2021/08/14 10:23:12;;;;;;;0.82;0.60;;;31.70;99.90;;;;;;5070374;28;20175;-75
2021/08/14 10:25:42;;;;;;;0.20;0.20;;;30.60;99.90;;;;;;5069026;28;20176;-74
2021/08/14 10:28:09;;;;;;;0.70;0.70;;;30.10;99.90;;;;;;5069132;28;20271;-74
2021/08/14 10:30:39;;;;;;;0.63;0.63;;;30.80;99.90;;;;;;5069409;28;20160;-76
2021/08/14 10:33:06;;;;;;;1.50;1.15;;;30.90;99.90;;;;;;5050580;28;20168;-74
2021/08/14 10:35:34;;;;;;;0.22;0.22;;;31.00;99.90;;;;;;5048497;28;20203;-74
2021/08/14 10:38:01;;;;;;;1.02;0.90;;;31.40;99.90;;;;;;5049380;28;20172;-76
2021/08/14 10:40:58;;;;;;;0.40;0.40;;;32.90;99.90;;;;;;5050831;28;20176;-79
2021/08/14 10:43:59;;;;;;;0.20;0.20;;;32.80;99.90;;;;;;5048844;28;20221;-77
2021/08/14 10:46:37;;;;;;;0.38;0.38;;;32.20;99.90;;;;;;5066131;28;20203;-77
2021/08/14 10:49:04;;;;;;;0.85;0.82;;;32.10;99.90;;;;;;5069884;28;20227;-76
2021/08/14 10:51:51;;;;;;;1.02;0.68;;;32.00;99.90;;;;;;5069362;28;20196;-75
2021/08/14 10:54:29;;;;;;;1.17;0.90;;;31.80;99.90;;;;;;5057110;28;20215;-75
2021/08/14 10:56:57;;;;;;;0.52;0.32;;;31.80;99.90;;;;;;5053720;28;20205;-75
2021/08/14 10:59:35;;;;;;;0.98;0.68;;;32.40;99.90;;;;;;5068650;28;20280;-74
2021/08/14 11:02:21;;;;;;;0.30;0.30;;;34.30;99.90;;;;;;5052466;28;20196;-76
2021/08/14 11:04:58;;;;;;;0.20;0.20;;;35.80;99.90;;;;;;5045868;28;20203;-75
2021/08/14 11:07:23;;;;;;;1.55;0.88;;;35.00;99.90;;;;;;5047716;28;20172;-76
2021/08/14 11:10:10;;;;;;;0.45;0.45;;;34.60;99.90;;;;;;5048476;28;20197;-76
2021/08/14 11:12:40;;;;;;;1.23;1.23;;;34.50;99.90;;;;;;5049921;28;20188;-76
2021/08/14 11:15:20;;;;;;;0.68;0.68;;;35.30;99.90;;;;;;5059525;28;20595;-75
2021/08/14 11:17:48;;;;;;;0.82;0.77;;;36.10;99.90;;;;;;5069043;28;20152;-76
2021/08/14 11:20:23;;;;;;;0.30;0.30;;;36.90;99.90;;;;;;5069815;28;20164;-76
2021/08/14 11:23:01;;;;;;;0.60;0.60;;;36.20;99.90;;;;;;5068317;28;20691;-75
2021/08/14 11:25:28;;;;;;;0.30;0.30;;;33.30;99.90;;;;;;5068158;28;20230;-78
2021/08/14 11:28:05;;;;;;;0.45;0.40;;;32.30;99.90;;;;;;5066505;28;20214;-76
2021/08/14 11:30:42;;;;;;;0.50;0.50;;;33.10;99.90;;;;;;5069546;28;20179;-76
2021/08/14 11:33:10;;;;;;;0.80;0.50;;;33.60;99.90;;;;;;5049871;28;20186;-75
2021/08/14 11:35:39;;;;;;;0.47;0.40;;;33.70;99.90;;;;;;5065641;28;20196;-76
2021/08/14 11:38:07;;;;;;;0.40;0.40;;;35.10;99.90;;;;;;5067610;28;20176;-77
2021/08/14 11:40:38;;;;;;;6.63;1.63;;;36.00;99.90;;;;;;5069107;28;20212;-78
2021/08/14 11:43:10;;;;;;;0.60;0.60;;;36.50;99.90;;;;;;5068323;28;20326;-78
2021/08/14 11:45:39;;;;;;;1.10;1.02;;;37.10;99.90;;;;;;5067654;28;20168;-78
2021/08/14 11:48:10;;;;;;;0.57;0.57;;;37.00;99.90;;;;;;5067218;28;20223;-77
2021/08/14 11:50:44;;;;;;;0.30;0.30;;;37.40;99.90;;;;;;5048525;28;20176;-78
2021/08/14 11:53:23;;;;;;;0.20;0.20;;;37.30;99.90;;;;;;5048931;28;20187;-78
2021/08/14 11:56:03;;;;;;;0.70;0.70;;;36.70;99.90;;;;;;5047611;28;20183;-78
2021/08/14 11:58:30;;;;;;;0.55;0.55;;;35.90;99.90;;;;;;5061677;28;20195;-79
2021/08/14 12:00:56;;;;;;;0.40;0.40;;;36.00;99.90;;;;;;5048323;28;20168;-79
2021/08/14 12:03:22;;;;;;;1.17;0.85;;;36.60;99.90;;;;;;5048805;28;20193;-79
2021/08/14 12:05:49;;;;;;;0.95;0.68;;;36.60;99.90;;;;;;5064243;28;20228;-79
2021/08/14 12:08:31;;;;;;;0.98;0.82;;;38.00;99.90;;;;;;5047332;28;20175;-79
2021/08/14 12:11:10;;;;;;;0.40;0.40;;;38.50;99.90;;;;;;5048401;28;20232;-79
2021/08/14 12:13:38;;;;;;;0.95;0.47;;;38.80;99.90;;;;;;5048197;28;20566;-78
2021/08/14 12:16:16;;;;;;;1.63;1.30;;;37.80;99.90;;;;;;5048755;28;20193;-77
2021/08/14 12:18:44;;;;;;;0.98;0.55;;;37.10;99.90;;;;;;5063906;28;20187;-79
2021/08/14 12:21:12;;;;;;;0.70;0.70;;;35.10;99.90;;;;;;5048601;28;20240;-77
2021/08/14 12:23:40;;;;;;;1.15;1.15;;;33.70;99.90;;;;;;5064047;28;20256;-79
2021/08/14 12:26:08;;;;;;;0.45;0.38;;;32.60;99.90;;;;;;5063728;28;20203;-78
2021/08/14 12:28:42;;;;;;;1.48;1.40;;;32.20;99.90;;;;;;5048405;28;20181;-76
2021/08/14 12:31:20;;;;;;;0.70;0.60;;;32.10;99.90;;;;;;5052783;28;20160;-76
2021/08/14 12:33:51;;;;;;;0.88;0.88;;;31.90;99.90;;;;;;5069084;28;20185;-76
2021/08/14 12:36:40;;;;;;;0.60;0.60;;;31.90;99.90;;;;;;5067588;28;20330;-78
2021/08/14 12:39:08;;;;;;;1.75;1.13;;;31.70;99.90;;;;;;5068908;28;20156;-76
2021/08/14 12:41:39;;;;;;;0.68;0.68;;;31.50;99.90;;;;;;5068278;28;20160;-77
2021/08/14 12:44:06;;;;;;;0.43;0.43;;;31.40;99.90;;;;;;5068157;28;20161;-77
2021/08/14 12:46:32;;;;;;;0.43;0.43;;;31.10;99.90;;;;;;5066652;28;20287;-77
2021/08/14 12:49:19;;;;;;;1.20;1.02;;;31.30;99.90;;;;;;5066435;28;20226;-78